createdAt,value
2022-09-04T00:02:24.866Z,14.80
2022-09-04T00:05:04.971Z,14.90
2022-09-04T00:07:42.761Z,14.80
2022-09-04T00:10:17.841Z,14.70
2022-09-04T00:12:51.803Z,14.70
2022-09-04T00:15:24.467Z,14.60
2022-09-04T00:17:59.809Z,14.60
2022-09-04T00:20:39.252Z,14.60
2022-09-04T00:23:15.346Z,14.60
2022-09-04T00:25:53.380Z,14.70
2022-09-04T00:28:35.053Z,14.70
2022-09-04T00:31:13.442Z,14.70
2022-09-04T00:33:49.060Z,14.70
2022-09-04T00:36:22.714Z,14.50
2022-09-04T00:38:57.997Z,14.40
2022-09-04T00:41:31.748Z,14.40
2022-09-04T00:44:29.346Z,14.30
2022-09-04T00:47:40.270Z,14.20
2022-09-04T00:50:21.545Z,14.20
2022-09-04T00:53:23.312Z,14.30
2022-09-04T00:56:05.816Z,14.40
2022-09-04T00:58:49.389Z,14.40
2022-09-04T01:01:23.700Z,14.40
2022-09-04T01:04:19.359Z,14.40
2022-09-04T01:06:59.470Z,14.40
2022-09-04T01:09:50.409Z,14.40
2022-09-04T01:12:31.146Z,14.40
2022-09-04T01:15:02.202Z,14.40
2022-09-04T01:17:40.079Z,14.40
2022-09-04T01:20:15.742Z,14.30
2022-09-04T01:22:59.638Z,14.30
2022-09-04T01:25:53.234Z,14.40
2022-09-04T01:28:29.335Z,14.50
2022-09-04T01:31:05.242Z,14.60
2022-09-04T01:33:42.893Z,14.60
2022-09-04T01:36:27.806Z,14.60
2022-09-04T01:38:59.445Z,14.70
2022-09-04T01:41:38.485Z,14.70
2022-09-04T01:44:10.555Z,14.80
2022-09-04T01:46:53.886Z,14.80
2022-09-04T01:49:31.404Z,14.90
2022-09-04T01:52:15.992Z,14.90
2022-09-04T01:54:54.962Z,14.90
2022-09-04T01:57:40.884Z,14.80
2022-09-04T02:00:11.967Z,14.80
2022-09-04T02:02:56.556Z,14.80
2022-09-04T02:05:33.148Z,14.80
2022-09-04T02:08:15.481Z,14.80
2022-09-04T02:10:52.271Z,14.80
2022-09-04T02:13:29.413Z,14.80
2022-09-04T02:16:10.436Z,14.80
2022-09-04T02:18:48.117Z,14.90
2022-09-04T02:21:28.207Z,14.90
2022-09-04T02:24:06.506Z,14.90
2022-09-04T02:26:39.581Z,15.00
2022-09-04T02:29:16.343Z,15.10
2022-09-04T02:31:54.429Z,15.20
2022-09-04T02:34:30.527Z,15.20
2022-09-04T02:37:06.797Z,15.30
2022-09-04T02:39:47.030Z,15.40
2022-09-04T02:42:25.178Z,15.50
2022-09-04T02:45:05.032Z,15.50
2022-09-04T02:47:43.338Z,15.50
2022-09-04T02:50:21.093Z,15.40
2022-09-04T02:53:05.786Z,15.40
2022-09-04T02:55:49.741Z,15.30
2022-09-04T02:58:32.699Z,15.30
2022-09-04T03:01:11.361Z,15.30
2022-09-04T03:03:47.542Z,15.30
2022-09-04T03:06:23.468Z,15.20
2022-09-04T03:08:58.494Z,15.20
2022-09-04T03:11:32.869Z,15.10
2022-09-04T03:17:06.669Z,15.00
2022-09-04T03:19:45.186Z,15.00
2022-09-04T03:22:19.217Z,15.00
2022-09-04T03:25:07.688Z,15.00
2022-09-04T03:27:36.530Z,15.00
2022-09-04T03:30:09.128Z,15.00
2022-09-04T03:32:51.928Z,15.00
2022-09-04T03:35:31.457Z,15.00
2022-09-04T03:38:10.265Z,15.10
2022-09-04T03:40:43.211Z,15.10
2022-09-04T03:43:40.766Z,15.10
2022-09-04T03:46:24.225Z,15.00
2022-09-04T03:49:07.600Z,15.00
2022-09-04T03:51:46.930Z,14.90
2022-09-04T03:54:32.329Z,14.90
2022-09-04T03:57:23.622Z,14.80
2022-09-04T04:00:04.090Z,14.80
2022-09-04T04:03:01.609Z,14.80
2022-09-04T04:05:43.283Z,14.80
2022-09-04T04:08:37.610Z,14.80
2022-09-04T04:11:21.838Z,14.90
2022-09-04T04:14:23.507Z,14.90
2022-09-04T04:17:02.936Z,14.90
2022-09-04T04:19:45.670Z,14.90
2022-09-04T04:22:36.187Z,14.80
2022-09-04T04:25:17.511Z,14.70
2022-09-04T04:28:00.396Z,14.70
2022-09-04T04:30:38.249Z,14.60
2022-09-04T04:33:32.704Z,14.50
2022-09-04T04:36:10.158Z,14.50
2022-09-04T04:38:53.411Z,14.60
2022-09-04T04:41:31.734Z,14.50
2022-09-04T04:44:12.932Z,14.60
2022-09-04T04:47:01.709Z,14.50
2022-09-04T04:49:49.475Z,14.60
2022-09-04T04:52:29.833Z,14.60
2022-09-04T04:55:16.888Z,14.60
2022-09-04T04:57:56.872Z,14.60
2022-09-04T05:00:33.589Z,14.60
2022-09-04T05:03:09.231Z,14.60
2022-09-04T05:05:59.033Z,14.60
2022-09-04T05:08:38.671Z,14.60
2022-09-04T05:11:18.788Z,14.60
2022-09-04T05:13:58.311Z,14.50
2022-09-04T05:16:37.329Z,14.60
2022-09-04T05:19:15.988Z,14.50
2022-09-04T05:21:51.734Z,14.60
2022-09-04T05:24:28.235Z,14.60
2022-09-04T05:27:07.250Z,14.60
2022-09-04T05:29:47.524Z,14.60
2022-09-04T05:32:26.190Z,14.60
2022-09-04T05:35:05.595Z,14.60
2022-09-04T05:37:38.980Z,14.60
2022-09-04T05:40:17.241Z,14.60
2022-09-04T05:43:00.714Z,14.60
2022-09-04T05:45:39.489Z,14.60
2022-09-04T05:48:20.010Z,14.60
2022-09-04T05:51:01.957Z,14.60
2022-09-04T05:54:10.717Z,14.60
2022-09-04T05:57:03.075Z,14.50
2022-09-04T06:00:00.137Z,14.60
2022-09-04T06:02:50.500Z,14.60
2022-09-04T06:05:30.832Z,14.80
2022-09-04T06:08:07.910Z,14.90
2022-09-04T06:10:48.836Z,15.00
2022-09-04T06:13:29.773Z,15.20
2022-09-04T06:16:15.324Z,15.30
2022-09-04T06:19:06.952Z,15.50
2022-09-04T06:22:07.550Z,15.60
2022-09-04T06:24:59.897Z,15.80
2022-09-04T06:27:53.619Z,15.90
2022-09-04T06:30:22.053Z,16.00
2022-09-04T06:33:15.037Z,16.10
2022-09-04T06:36:08.163Z,16.20
2022-09-04T06:38:49.068Z,16.20
2022-09-04T06:41:35.620Z,16.30
2022-09-04T06:44:23.478Z,16.50
2022-09-04T06:47:01.855Z,16.60
2022-09-04T06:49:39.537Z,16.90
2022-09-04T06:52:21.264Z,17.10
2022-09-04T06:55:01.448Z,17.30
2022-09-04T06:58:06.382Z,17.40
2022-09-04T07:00:40.393Z,17.60
2022-09-04T07:03:21.363Z,17.80
2022-09-04T07:05:57.533Z,18.00
2022-09-04T07:08:38.990Z,18.10
2022-09-04T07:11:21.662Z,18.30
2022-09-04T07:14:22.984Z,18.40
2022-09-04T07:17:05.123Z,18.40
2022-09-04T07:20:02.930Z,18.60
2022-09-04T07:23:03.936Z,18.80
2022-09-04T07:25:42.767Z,18.90
2022-09-04T07:28:34.807Z,19.10
2022-09-04T07:31:09.410Z,19.20
2022-09-04T07:33:45.817Z,19.40
2022-09-04T07:36:18.889Z,19.50
2022-09-04T07:38:57.768Z,19.60
2022-09-04T07:41:32.826Z,19.70
2022-09-04T07:44:08.366Z,19.70
2022-09-04T07:46:44.745Z,19.90
2022-09-04T07:49:23.024Z,20.00
2022-09-04T07:51:57.132Z,20.20
2022-09-04T07:54:49.099Z,20.30
2022-09-04T07:57:42.403Z,20.40
2022-09-04T08:00:17.978Z,20.50
2022-09-04T08:02:59.631Z,20.50
2022-09-04T08:05:32.222Z,20.50
2022-09-04T08:08:40.126Z,20.60
2022-09-04T08:11:37.269Z,20.70
2022-09-04T08:14:40.936Z,20.80
2022-09-04T08:17:50.289Z,20.90
2022-09-04T08:20:36.194Z,21.10
2022-09-04T08:23:16.503Z,21.20
2022-09-04T08:25:56.129Z,21.20
2022-09-04T08:28:46.383Z,21.40
2022-09-04T08:31:22.586Z,21.50
2022-09-04T08:34:07.640Z,21.50
2022-09-04T08:36:46.498Z,21.60
2022-09-04T08:39:20.408Z,21.70
2022-09-04T08:42:20.946Z,21.70
2022-09-04T08:45:42.178Z,21.80
2022-09-04T08:48:44.473Z,21.90
2022-09-04T08:51:47.417Z,22.00
2022-09-04T08:54:48.447Z,22.20
2022-09-04T08:57:55.701Z,22.20
2022-09-04T09:00:33.253Z,22.30
2022-09-04T09:03:48.111Z,22.40
2022-09-04T09:06:53.256Z,22.50
2022-09-04T09:09:47.467Z,22.60
2022-09-04T09:12:57.312Z,22.70
2022-09-04T09:15:43.308Z,22.80
2022-09-04T09:18:40.544Z,22.70
2022-09-04T09:21:13.177Z,22.60
2022-09-04T09:24:10.370Z,22.60
2022-09-04T09:26:52.427Z,22.70
2022-09-04T09:29:39.629Z,22.80
2022-09-04T09:32:51.189Z,22.90
2022-09-04T09:36:08.269Z,23.00
2022-09-04T09:39:05.972Z,23.10
2022-09-04T09:42:10.159Z,23.30
2022-09-04T09:45:18.491Z,23.40
2022-09-04T09:48:19.992Z,23.50
2022-09-04T09:51:25.309Z,23.40
2022-09-04T09:54:24.610Z,23.50
2022-09-04T09:57:39.007Z,23.70
2022-09-04T10:00:17.304Z,23.90
2022-09-04T10:03:16.171Z,24.00
2022-09-04T10:06:29.018Z,24.10
2022-09-04T10:09:51.527Z,24.10
2022-09-04T10:12:55.770Z,24.20
2022-09-04T10:15:54.685Z,24.40
2022-09-04T10:19:13.889Z,24.50
2022-09-04T10:22:22.660Z,24.50
2022-09-04T10:25:31.099Z,24.70
2022-09-04T10:28:53.747Z,24.90
2022-09-04T10:31:54.261Z,25.20
2022-09-04T10:34:55.655Z,25.30
2022-09-04T10:37:40.188Z,25.30
2022-09-04T10:40:42.859Z,25.40
2022-09-04T10:43:31.998Z,25.40
2022-09-04T10:46:23.430Z,25.70
2022-09-04T10:49:15.723Z,25.80
2022-09-04T10:52:18.728Z,26.00
2022-09-04T10:55:26.658Z,26.00
2022-09-04T10:58:17.802Z,26.10
2022-09-04T11:01:14.174Z,26.10
2022-09-04T11:04:13.242Z,25.90
2022-09-04T11:07:28.573Z,25.90
2022-09-04T11:10:29.213Z,26.10
2022-09-04T11:13:28.091Z,26.20
2022-09-04T11:16:29.471Z,26.20
2022-09-04T11:19:24.209Z,25.90
2022-09-04T11:22:26.261Z,25.80
2022-09-04T11:25:37.504Z,25.80
2022-09-04T11:29:07.078Z,25.70
2022-09-04T11:31:58.161Z,25.80
2022-09-04T11:35:00.125Z,25.80
2022-09-04T11:37:57.819Z,25.80
2022-09-04T11:41:21.577Z,25.70
2022-09-04T11:44:08.267Z,25.50
2022-09-04T11:47:06.563Z,25.40
2022-09-04T11:50:08.293Z,25.30
2022-09-04T11:53:04.369Z,25.30
2022-09-04T11:55:53.703Z,25.50
2022-09-04T11:58:46.283Z,25.60
2022-09-04T12:01:36.751Z,25.70
2022-09-04T12:04:24.461Z,25.80
2022-09-04T12:07:09.273Z,26.00
2022-09-04T12:10:02.198Z,26.00
2022-09-04T12:12:45.802Z,25.90
2022-09-04T12:15:39.996Z,25.80
2022-09-04T12:18:45.447Z,25.70
2022-09-04T12:21:35.553Z,25.70
2022-09-04T12:24:36.574Z,25.60
2022-09-04T12:27:27.562Z,25.50
2022-09-04T12:30:13.647Z,25.30
2022-09-04T12:33:14.568Z,25.20
2022-09-04T12:36:27.898Z,25.10
2022-09-04T12:39:33.652Z,24.90
2022-09-04T12:42:08.900Z,24.90
2022-09-04T12:44:51.736Z,25.00
2022-09-04T12:47:33.807Z,25.20
2022-09-04T12:50:33.631Z,25.50
2022-09-04T12:53:28.345Z,25.80
2022-09-04T12:56:12.765Z,26.20
2022-09-04T12:59:02.184Z,26.40
2022-09-04T13:01:46.013Z,26.40
2022-09-04T13:04:27.480Z,26.30
2022-09-04T13:07:27.632Z,26.50
2022-09-04T13:10:11.297Z,26.80
2022-09-04T13:12:46.396Z,27.20
2022-09-04T13:15:24.653Z,27.70
2022-09-04T13:18:02.650Z,28.10
2022-09-04T13:20:36.372Z,28.40
2022-09-04T13:23:29.130Z,28.80
2022-09-04T13:26:29.984Z,28.80
2022-09-04T13:29:12.236Z,28.80
2022-09-04T13:32:10.432Z,29.10
2022-09-04T13:34:58.612Z,29.40
2022-09-04T13:37:36.530Z,29.60
2022-09-04T13:40:38.883Z,29.70
2022-09-04T13:43:35.791Z,30.10
2022-09-04T13:46:07.887Z,30.80
2022-09-04T13:48:43.682Z,31.70
2022-09-04T13:51:18.829Z,32.50
2022-09-04T13:54:05.176Z,33.30
2022-09-04T13:56:40.819Z,34.20
2022-09-04T13:59:16.412Z,34.90
2022-09-04T14:01:49.317Z,35.10
2022-09-04T14:04:26.659Z,34.80
2022-09-04T14:07:06.158Z,34.20
2022-09-04T14:09:39.574Z,33.70
2022-09-04T14:12:32.168Z,33.20
2022-09-04T14:15:29.000Z,32.90
2022-09-04T14:18:13.803Z,32.50
2022-09-04T14:20:51.352Z,31.90
2022-09-04T14:23:29.969Z,31.50
2022-09-04T14:26:06.285Z,30.80
2022-09-04T14:28:44.931Z,30.40
2022-09-04T14:31:24.268Z,30.00
2022-09-04T14:34:04.027Z,29.80
2022-09-04T14:36:42.723Z,29.40
2022-09-04T14:39:21.625Z,29.10
2022-09-04T14:42:12.351Z,28.90
2022-09-04T14:44:58.384Z,28.60
2022-09-04T14:47:37.000Z,28.40
2022-09-04T14:50:10.727Z,28.20
2022-09-04T14:52:43.149Z,28.10
2022-09-04T14:55:17.896Z,27.90
2022-09-04T14:57:51.512Z,27.80
2022-09-04T15:00:25.033Z,27.60
2022-09-04T15:03:02.511Z,27.50
2022-09-04T15:05:35.712Z,27.50
2022-09-04T15:08:06.968Z,27.40
2022-09-04T15:10:47.782Z,27.30
2022-09-04T15:13:53.041Z,27.20
2022-09-04T15:16:30.710Z,27.10
2022-09-04T15:19:08.585Z,26.90
2022-09-04T15:21:50.868Z,26.70
2022-09-04T15:24:26.800Z,26.60
2022-09-04T15:27:04.301Z,26.50
2022-09-04T15:29:40.841Z,26.50
2022-09-04T15:32:14.201Z,26.40
2022-09-04T15:34:43.363Z,26.40
2022-09-04T15:37:16.485Z,26.30
2022-09-04T15:39:54.021Z,26.10
2022-09-04T15:42:38.536Z,26.10
2022-09-04T15:45:15.667Z,26.00
2022-09-04T15:47:58.867Z,26.00
2022-09-04T15:50:32.157Z,25.90
2022-09-04T15:53:15.340Z,25.90
2022-09-04T15:55:46.936Z,25.70
2022-09-04T15:58:21.515Z,25.60
2022-09-04T16:01:14.922Z,25.60
2022-09-04T16:04:12.892Z,25.60
2022-09-04T16:06:48.352Z,25.60
2022-09-04T16:09:24.244Z,25.60
2022-09-04T16:12:03.512Z,25.50
2022-09-04T16:14:42.464Z,25.40
2022-09-04T16:17:20.241Z,25.40
2022-09-04T16:20:00.133Z,25.40
2022-09-04T16:22:39.969Z,25.30
2022-09-04T16:25:11.299Z,25.30
2022-09-04T16:27:46.260Z,25.30
2022-09-04T16:30:35.901Z,25.30
2022-09-04T16:33:16.245Z,25.30
2022-09-04T16:36:11.628Z,25.20
2022-09-04T16:38:47.686Z,25.20
2022-09-04T16:41:25.563Z,25.20
2022-09-04T16:44:13.932Z,25.20
2022-09-04T16:47:00.417Z,25.20
2022-09-04T16:49:34.992Z,25.20
2022-09-04T16:52:22.127Z,25.10
2022-09-04T16:54:55.472Z,25.10
2022-09-04T16:57:33.225Z,25.00
2022-09-04T17:00:08.248Z,25.10
2022-09-04T17:02:44.788Z,25.00
2022-09-04T17:05:28.318Z,25.00
2022-09-04T17:08:05.900Z,25.00
2022-09-04T17:10:44.616Z,25.00
2022-09-04T17:13:21.602Z,25.00
2022-09-04T17:16:01.108Z,25.00
2022-09-04T17:18:31.541Z,25.00
2022-09-04T17:25:32.693Z,25.00
2022-09-04T17:29:00.063Z,25.00
2022-09-04T17:29:15.229Z,25.00
2022-09-04T17:29:55.246Z,25.00
2022-09-04T17:33:58.468Z,24.90
2022-09-04T17:40:56.727Z,24.90
2022-09-04T17:41:34.351Z,24.90
2022-09-04T17:41:38.080Z,24.80
2022-09-04T17:44:32.084Z,24.80
2022-09-04T17:47:14.013Z,24.80
2022-09-04T17:49:47.044Z,24.70
2022-09-04T17:52:23.977Z,24.70
2022-09-04T17:54:53.261Z,24.70
2022-09-04T17:57:28.572Z,24.70
2022-09-04T18:00:09.900Z,24.60
2022-09-04T18:02:46.631Z,24.50
2022-09-04T18:05:22.089Z,24.50
2022-09-04T18:08:09.107Z,24.50
2022-09-04T18:10:53.534Z,24.40
2022-09-04T18:13:37.997Z,24.40
2022-09-04T18:16:18.368Z,24.30
2022-09-04T18:18:54.368Z,24.30
2022-09-04T18:21:26.995Z,24.30
2022-09-04T18:24:01.556Z,24.30
2022-09-04T18:26:41.376Z,24.20
2022-09-04T18:30:35.289Z,24.10
2022-09-04T18:37:17.608Z,23.90
2022-09-04T18:37:26.212Z,24.10
2022-09-04T18:38:28.344Z,23.80
2022-09-04T18:44:25.799Z,23.70
2022-09-04T18:50:26.026Z,23.70
2022-09-04T18:50:36.247Z,23.60
2022-09-04T18:50:42.791Z,23.60
2022-09-04T18:52:30.139Z,23.40
2022-09-04T18:55:03.754Z,23.40
2022-09-04T18:57:36.244Z,23.30
2022-09-04T19:00:11.029Z,23.30
2022-09-04T19:02:53.016Z,23.20
2022-09-04T19:05:24.644Z,23.10
2022-09-04T19:07:56.684Z,23.10
2022-09-04T19:10:28.284Z,23.10
2022-09-04T19:13:02.954Z,23.10
2022-09-04T19:15:57.657Z,23.00
2022-09-04T19:18:36.399Z,22.90
2022-09-04T19:21:24.459Z,22.80
2022-09-04T19:23:58.811Z,22.70
2022-09-04T19:26:37.642Z,22.70
2022-09-04T19:29:14.932Z,22.70
2022-09-04T19:31:51.281Z,22.70
2022-09-04T19:34:28.295Z,22.60
2022-09-04T19:37:24.632Z,22.60
2022-09-04T19:46:05.990Z,22.60
2022-09-04T19:46:14.313Z,22.60
2022-09-04T19:46:26.284Z,22.60
2022-09-04T19:49:03.664Z,22.50
2022-09-04T19:53:29.641Z,22.40
2022-09-04T19:54:36.622Z,22.40
2022-09-04T19:57:33.199Z,22.30
2022-09-04T20:00:42.594Z,22.20
2022-09-04T20:03:02.668Z,22.10
2022-09-04T20:05:34.148Z,22.00
2022-09-04T20:08:12.284Z,22.00
2022-09-04T20:10:47.890Z,22.10
2022-09-04T20:13:23.949Z,22.10
2022-09-04T20:16:00.670Z,22.10
2022-09-04T20:18:34.338Z,22.10
2022-09-04T20:21:13.736Z,22.10
2022-09-04T20:23:48.524Z,22.20
2022-09-04T20:26:22.643Z,22.20
2022-09-04T20:29:01.529Z,22.20
2022-09-04T20:31:47.710Z,22.20
2022-09-04T20:34:31.217Z,22.20
2022-09-04T20:37:25.555Z,22.10
2022-09-04T20:40:05.179Z,22.20
2022-09-04T20:42:39.572Z,22.20
2022-09-04T20:48:55.110Z,22.20
2022-09-04T20:52:51.379Z,22.20
2022-09-04T20:53:07.327Z,22.10
2022-09-04T20:54:33.006Z,22.10
2022-09-04T20:59:32.170Z,22.10
2022-09-04T21:03:14.334Z,22.20
2022-09-04T21:03:16.998Z,22.10
2022-09-04T21:06:07.172Z,22.10
2022-09-04T21:08:44.977Z,22.00
2022-09-04T21:11:39.528Z,22.00
2022-09-04T21:14:15.416Z,21.90
2022-09-04T21:17:18.760Z,22.00
2022-09-04T21:20:48.578Z,21.90
2022-09-04T21:24:03.461Z,22.00
2022-09-04T21:27:02.382Z,21.90
2022-09-04T21:29:47.501Z,21.90
2022-09-04T21:32:30.346Z,21.80
2022-09-04T21:35:08.066Z,21.70
2022-09-04T21:37:45.183Z,21.60
2022-09-04T21:40:51.251Z,21.60
2022-09-04T21:43:54.145Z,21.60
2022-09-04T21:46:46.214Z,21.50
2022-09-04T21:49:39.668Z,21.40
2022-09-04T21:52:36.943Z,21.30
2022-09-04T21:58:49.223Z,21.30
2022-09-04T22:02:29.530Z,21.20
2022-09-04T22:02:42.615Z,21.10
2022-09-04T22:04:44.912Z,21.10
2022-09-04T22:10:00.496Z,21.00
2022-09-04T22:13:37.851Z,21.00
2022-09-04T22:13:48.169Z,21.00
2022-09-04T22:16:32.724Z,21.10
2022-09-04T22:19:48.828Z,21.10
2022-09-04T22:22:35.887Z,21.20
2022-09-04T22:25:20.731Z,21.20
2022-09-04T22:28:31.940Z,21.20
2022-09-04T22:31:34.136Z,21.20
2022-09-04T22:34:44.036Z,21.30
2022-09-04T22:37:39.094Z,21.30
2022-09-04T22:40:44.513Z,21.30
2022-09-04T22:43:24.259Z,21.30
2022-09-04T22:46:31.236Z,21.20
2022-09-04T22:49:43.283Z,21.20
2022-09-04T22:52:34.473Z,21.20
2022-09-04T22:56:22.798Z,21.20
2022-09-04T22:58:27.404Z,21.20
2022-09-04T23:01:22.280Z,21.20
2022-09-04T23:04:03.248Z,21.20
2022-09-04T23:11:38.613Z,21.10
2022-09-04T23:14:00.082Z,21.00
2022-09-04T23:14:05.129Z,20.90
2022-09-04T23:17:02.519Z,20.70
2022-09-04T23:26:31.212Z,20.60
2022-09-04T23:26:48.657Z,20.50
2022-09-04T23:26:59.457Z,20.30
2022-09-04T23:29:48.991Z,20.20
2022-09-04T23:32:38.391Z,20.00
2022-09-04T23:35:16.488Z,19.90
2022-09-04T23:38:12.553Z,19.80
2022-09-04T23:40:46.829Z,19.80
2022-09-04T23:43:37.565Z,19.90
2022-09-04T23:46:43.772Z,19.90
2022-09-04T23:49:54.489Z,20.10
2022-09-04T23:52:30.473Z,20.10
2022-09-04T23:55:22.606Z,20.20
2022-09-04T23:57:59.159Z,20.20
